createdAt,value
2019-04-04T00:00:29.677Z,80.39
2019-04-04T00:01:29.662Z,80.49
2019-04-04T00:02:29.642Z,80.39
2019-04-04T00:03:29.619Z,80.11
2019-04-04T00:04:29.607Z,80.11
2019-04-04T00:05:29.581Z,80.39
2019-04-04T00:07:12.094Z,80.49
2019-04-04T00:08:12.076Z,80.49
2019-04-04T00:09:12.068Z,80.30
2019-04-04T00:10:12.036Z,80.49
2019-04-04T00:11:12.021Z,80.39
2019-04-04T00:12:11.999Z,80.68
2019-04-04T00:13:11.995Z,80.30
2019-04-04T00:14:13.044Z,80.68
2019-04-04T00:15:12.960Z,80.87
2019-04-04T00:16:11.933Z,81.06
2019-04-04T00:17:11.917Z,80.87
2019-04-04T00:18:11.893Z,81.25
2019-04-04T00:19:11.886Z,81.44
2019-04-04T00:20:11.873Z,81.44
2019-04-04T00:21:11.842Z,81.25
2019-04-04T00:22:11.822Z,81.44
2019-04-04T00:23:11.809Z,81.44
2019-04-04T00:24:11.781Z,81.44
2019-04-04T00:25:11.762Z,81.54
2019-04-04T00:26:11.747Z,81.54
2019-04-04T00:27:13.752Z,81.35
2019-04-04T00:28:12.964Z,81.25
2019-04-04T00:29:11.699Z,81.25
2019-04-04T00:30:11.673Z,81.35
2019-04-04T00:31:11.651Z,81.15
2019-04-04T00:32:11.638Z,81.35
2019-04-04T00:33:11.617Z,81.54
2019-04-04T00:34:13.715Z,81.06
2019-04-04T00:35:11.580Z,81.35
2019-04-04T00:36:11.563Z,81.12
2019-04-04T00:37:11.550Z,81.21
2019-04-04T00:38:11.527Z,80.96
2019-04-04T00:39:11.509Z,81.40
2019-04-04T00:40:11.845Z,82.01
2019-04-04T00:41:12.980Z,81.92
2019-04-04T00:42:11.451Z,81.78
2019-04-04T00:43:11.440Z,81.68
2019-04-04T00:44:11.415Z,81.68
2019-04-04T00:45:11.397Z,81.59
2019-04-04T00:46:11.377Z,81.88
2019-04-04T00:47:11.359Z,81.49
2019-04-04T00:48:11.343Z,81.21
2019-04-04T00:49:11.323Z,81.59
2019-04-04T00:50:11.304Z,81.49
2019-04-04T00:51:11.283Z,81.40
2019-04-04T00:52:11.265Z,81.02
2019-04-04T00:53:11.772Z,81.02
2019-04-04T00:54:13.712Z,81.40
2019-04-04T00:55:11.207Z,81.02
2019-04-04T00:56:11.189Z,81.02
2019-04-04T00:57:11.171Z,81.02
2019-04-04T00:58:11.152Z,81.21
2019-04-04T00:59:11.137Z,81.59
2019-04-04T01:00:11.115Z,81.40
2019-04-04T01:01:11.096Z,81.68
2019-04-04T01:02:11.077Z,81.12
2019-04-04T01:03:11.061Z,81.49
2019-04-04T01:04:11.046Z,81.12
2019-04-04T01:05:11.021Z,81.21
2019-04-04T01:06:11.013Z,81.49
2019-04-04T01:07:10.985Z,81.40
2019-04-04T01:08:10.967Z,81.30
2019-04-04T01:09:13.306Z,80.92
2019-04-04T01:10:10.926Z,81.12
2019-04-04T01:11:10.909Z,81.02
2019-04-04T01:12:10.893Z,81.21
2019-04-04T01:13:10.871Z,81.21
2019-04-04T01:14:10.854Z,81.78
2019-04-04T01:15:10.831Z,81.68
2019-04-04T01:16:10.817Z,81.88
2019-04-04T01:17:10.803Z,81.88
2019-04-04T01:18:10.779Z,81.88
2019-04-04T01:19:10.755Z,81.97
2019-04-04T01:20:10.737Z,81.68
2019-04-04T01:21:10.723Z,81.78
2019-04-04T01:22:10.703Z,81.59
2019-04-04T01:23:10.686Z,81.59
2019-04-04T01:24:10.663Z,81.88
2019-04-04T01:25:10.643Z,81.40
2019-04-04T01:26:10.627Z,81.78
2019-04-04T01:27:10.605Z,81.88
2019-04-04T01:28:10.583Z,82.07
2019-04-04T01:29:11.130Z,81.88
2019-04-04T01:30:12.580Z,81.78
2019-04-04T01:31:10.529Z,81.78
2019-04-04T01:32:10.510Z,81.68
2019-04-04T01:33:10.493Z,81.59
2019-04-04T01:34:10.475Z,81.97
2019-04-04T01:35:10.451Z,81.97
2019-04-04T01:36:10.445Z,82.26
2019-04-04T01:37:10.416Z,82.17
2019-04-04T01:38:10.397Z,82.17
2019-04-04T01:39:10.373Z,82.45
2019-04-04T01:40:10.370Z,82.54
2019-04-04T01:41:10.345Z,82.45
2019-04-04T01:42:10.327Z,82.64
2019-04-04T01:43:10.303Z,82.64
2019-04-04T01:44:11.371Z,82.31
2019-04-04T01:45:12.765Z,82.31
2019-04-04T01:46:10.248Z,82.54
2019-04-04T01:47:10.248Z,82.45
2019-04-04T01:48:10.210Z,82.41
2019-04-04T01:49:10.188Z,82.41
2019-04-04T01:50:10.171Z,82.98
2019-04-04T01:51:10.149Z,83.07
2019-04-04T01:52:10.131Z,82.98
2019-04-04T01:53:10.110Z,82.98
2019-04-04T01:54:10.088Z,82.98
2019-04-04T01:55:10.074Z,83.07
2019-04-04T01:56:10.056Z,83.07
2019-04-04T01:57:10.038Z,83.17
2019-04-04T01:58:10.732Z,83.36
2019-04-04T01:59:10.247Z,82.69
2019-04-04T02:00:09.978Z,83.17
2019-04-04T02:01:09.961Z,83.17
2019-04-04T02:02:09.936Z,82.98
2019-04-04T02:03:09.929Z,83.17
2019-04-04T02:04:09.900Z,83.55
2019-04-04T02:05:09.882Z,83.65
2019-04-04T02:06:09.866Z,83.55
2019-04-04T02:07:09.845Z,83.55
2019-04-04T02:08:09.820Z,83.84
2019-04-04T02:09:09.810Z,83.93
2019-04-04T02:10:09.782Z,83.84
2019-04-04T02:11:09.763Z,83.74
2019-04-04T02:12:09.744Z,83.84
2019-04-04T02:13:10.429Z,83.74
2019-04-04T02:14:11.547Z,83.84
2019-04-04T02:15:09.690Z,83.74
2019-04-04T02:16:09.703Z,83.65
2019-04-04T02:17:09.650Z,83.74
2019-04-04T02:18:09.631Z,83.84
2019-04-04T02:19:09.621Z,83.74
2019-04-04T02:20:09.590Z,83.55
2019-04-04T02:21:09.574Z,83.36
2019-04-04T02:22:09.552Z,83.55
2019-04-04T02:23:09.547Z,83.93
2019-04-04T02:24:09.518Z,84.31
2019-04-04T02:25:09.533Z,84.03
2019-04-04T02:26:09.474Z,84.03
2019-04-04T02:27:09.469Z,84.41
2019-04-04T02:28:09.612Z,83.98
2019-04-04T02:29:11.099Z,84.56
2019-04-04T02:30:14.640Z,84.56
2019-04-04T02:31:09.380Z,84.60
2019-04-04T02:32:09.389Z,84.41
2019-04-04T02:33:09.341Z,84.56
2019-04-04T02:34:09.325Z,84.36
2019-04-04T02:35:10.776Z,84.65
2019-04-04T02:36:09.285Z,84.65
2019-04-04T02:37:09.263Z,84.94
2019-04-04T02:38:09.240Z,85.03
2019-04-04T02:39:09.229Z,84.84
2019-04-04T02:40:10.067Z,84.94
2019-04-04T02:41:09.185Z,84.84
2019-04-04T02:42:09.168Z,84.75
2019-04-04T02:43:09.155Z,84.84
2019-04-04T02:44:09.124Z,84.56
2019-04-04T02:45:09.135Z,84.17
2019-04-04T02:46:11.570Z,84.46
2019-04-04T02:47:09.067Z,84.94
2019-04-04T02:48:09.048Z,85.41
2019-04-04T02:49:09.036Z,85.41
2019-04-04T02:50:09.018Z,85.80
2019-04-04T02:51:08.993Z,85.75
2019-04-04T02:52:12.807Z,86.13
2019-04-04T02:53:08.953Z,85.85
2019-04-04T02:54:08.934Z,85.94
2019-04-04T02:55:08.913Z,86.80
2019-04-04T02:56:08.901Z,86.51
2019-04-04T02:57:09.641Z,86.51
2019-04-04T02:58:08.850Z,86.42
2019-04-04T02:59:08.836Z,86.90
2019-04-04T03:00:08.811Z,86.61
2019-04-04T03:01:08.793Z,86.70
2019-04-04T03:02:08.774Z,87.08
2019-04-04T03:03:09.465Z,86.61
2019-04-04T03:04:08.737Z,86.61
2019-04-04T03:05:08.717Z,86.90
2019-04-04T03:06:08.695Z,86.90
2019-04-04T03:07:08.675Z,86.99
2019-04-04T03:08:08.658Z,87.37
2019-04-04T03:09:09.946Z,87.37
2019-04-04T03:10:08.619Z,87.18
2019-04-04T03:11:08.599Z,87.85
2019-04-04T03:12:08.584Z,86.99
2019-04-04T03:13:08.569Z,87.65
2019-04-04T03:14:08.543Z,87.85
2019-04-04T03:15:09.234Z,87.46
2019-04-04T03:16:08.507Z,87.65
2019-04-04T03:17:08.486Z,87.08
2019-04-04T03:18:08.477Z,87.18
2019-04-04T03:19:11.063Z,86.70
2019-04-04T03:20:08.420Z,86.22
2019-04-04T03:21:08.402Z,86.80
2019-04-04T03:22:08.386Z,86.42
2019-04-04T03:23:08.374Z,86.51
2019-04-04T03:24:08.361Z,86.61
2019-04-04T03:25:08.334Z,86.42
2019-04-04T03:26:08.305Z,86.32
2019-04-04T03:27:08.282Z,86.42
2019-04-04T03:28:08.271Z,87.18
2019-04-04T03:29:10.465Z,86.99
2019-04-04T03:30:13.398Z,86.42
2019-04-04T03:31:08.203Z,86.61
2019-04-04T03:32:13.384Z,86.42
2019-04-04T03:33:08.198Z,86.70
2019-04-04T03:34:11.026Z,86.80
2019-04-04T03:35:08.154Z,86.90
2019-04-04T03:36:08.136Z,86.70
2019-04-04T03:37:12.132Z,86.90
2019-04-04T03:38:08.079Z,86.80
2019-04-04T03:39:08.050Z,87.18
2019-04-04T03:40:08.028Z,87.08
2019-04-04T03:41:08.009Z,87.65
2019-04-04T03:42:08.335Z,87.75
2019-04-04T03:43:07.969Z,87.65
2019-04-04T03:44:07.949Z,87.65
2019-04-04T03:45:07.929Z,87.18
2019-04-04T03:46:07.910Z,87.85
2019-04-04T03:47:10.400Z,87.75
2019-04-04T03:48:07.867Z,87.56
2019-04-04T03:49:07.854Z,87.94
2019-04-04T03:50:07.827Z,87.94
2019-04-04T03:51:07.802Z,87.08
2019-04-04T03:52:11.224Z,86.70
2019-04-04T03:53:07.863Z,87.08
2019-04-04T03:54:07.744Z,86.70
2019-04-04T03:55:07.725Z,86.99
2019-04-04T03:56:07.707Z,86.70
2019-04-04T03:57:10.951Z,87.37
2019-04-04T03:58:07.668Z,87.37
2019-04-04T03:59:07.659Z,86.90
2019-04-04T04:00:07.729Z,87.56
2019-04-04T04:01:11.945Z,87.27
2019-04-04T04:02:07.591Z,87.75
2019-04-04T04:03:07.566Z,87.94
2019-04-04T04:04:07.543Z,87.37
2019-04-04T04:05:07.530Z,87.56
2019-04-04T04:06:08.873Z,87.75
2019-04-04T04:07:07.485Z,87.85
2019-04-04T04:08:07.475Z,87.37
2019-04-04T04:09:07.448Z,87.94
2019-04-04T04:10:07.423Z,87.75
2019-04-04T04:11:07.407Z,88.04
2019-04-04T04:12:10.170Z,88.09
2019-04-04T04:13:07.378Z,88.56
2019-04-04T04:14:07.349Z,88.37
2019-04-04T04:15:07.328Z,88.75
2019-04-04T04:16:07.306Z,88.09
2019-04-04T04:17:11.273Z,88.18
2019-04-04T04:18:07.277Z,88.56
2019-04-04T04:19:07.258Z,87.99
2019-04-04T04:20:07.232Z,88.46
2019-04-04T04:21:10.801Z,88.85
2019-04-04T04:22:07.183Z,88.66
2019-04-04T04:23:07.161Z,88.66
2019-04-04T04:24:07.148Z,88.66
2019-04-04T04:25:07.124Z,88.66
2019-04-04T04:26:09.448Z,88.66
2019-04-04T04:27:07.089Z,88.66
2019-04-04T04:28:07.068Z,88.85
2019-04-04T04:29:07.052Z,88.66
2019-04-04T04:30:07.674Z,89.23
2019-04-04T04:31:07.016Z,89.23
2019-04-04T04:32:06.983Z,89.23
2019-04-04T04:33:06.964Z,89.23
2019-04-04T04:34:06.948Z,89.14
2019-04-04T04:35:08.584Z,89.14
2019-04-04T04:36:09.743Z,89.14
2019-04-04T04:37:06.910Z,88.94
2019-04-04T04:38:06.861Z,88.94
2019-04-04T04:39:06.851Z,89.42
2019-04-04T04:40:06.827Z,89.42
2019-04-04T04:41:06.808Z,90.08
2019-04-04T04:42:06.782Z,89.61
2019-04-04T04:43:06.773Z,89.61
2019-04-04T04:44:06.822Z,89.80
2019-04-04T04:45:10.874Z,89.70
2019-04-04T04:46:06.716Z,89.89
2019-04-04T04:47:06.678Z,89.70
2019-04-04T04:48:06.666Z,89.51
2019-04-04T04:49:06.652Z,89.70
2019-04-04T04:50:09.638Z,89.80
2019-04-04T04:51:06.602Z,89.51
2019-04-04T04:52:06.576Z,89.99
2019-04-04T04:53:06.560Z,89.70
2019-04-04T04:54:06.540Z,89.80
2019-04-04T04:55:06.540Z,89.70
2019-04-04T04:56:06.498Z,89.80
2019-04-04T04:57:06.475Z,89.99
2019-04-04T04:58:09.968Z,90.37
2019-04-04T04:59:06.445Z,90.28
2019-04-04T05:00:06.412Z,90.18
2019-04-04T05:01:06.396Z,90.28
2019-04-04T05:02:06.377Z,90.28
2019-04-04T05:03:06.354Z,90.56
2019-04-04T05:04:06.337Z,90.47
2019-04-04T05:05:06.316Z,90.28
2019-04-04T05:06:06.300Z,90.08
2019-04-04T05:07:07.433Z,90.18
2019-04-04T05:08:09.473Z,90.18
2019-04-04T05:09:06.235Z,90.37
2019-04-04T05:10:06.214Z,90.08
2019-04-04T05:11:06.194Z,90.28
2019-04-04T05:12:06.176Z,90.28
2019-04-04T05:13:06.161Z,90.28
2019-04-04T05:14:06.131Z,90.37
2019-04-04T05:15:06.106Z,90.18
2019-04-04T05:16:08.902Z,90.37
2019-04-04T05:17:06.068Z,90.75
2019-04-04T05:18:06.051Z,90.66
2019-04-04T05:19:06.029Z,90.66
2019-04-04T05:20:06.012Z,90.84
2019-04-04T05:21:06.005Z,90.94
2019-04-04T05:22:07.141Z,90.84
2019-04-04T05:23:05.948Z,90.84
2019-04-04T05:24:05.931Z,90.47
2019-04-04T05:25:08.255Z,90.18
2019-04-04T05:26:05.886Z,90.37
2019-04-04T05:27:06.698Z,90.18
2019-04-04T05:28:06.345Z,90.37
2019-04-04T05:29:05.839Z,90.56
2019-04-04T05:30:08.336Z,90.13
2019-04-04T05:31:05.788Z,89.84
2019-04-04T05:32:05.764Z,90.13
2019-04-04T05:33:05.742Z,89.75
2019-04-04T05:34:05.724Z,89.84
2019-04-04T05:35:05.704Z,89.84
2019-04-04T05:36:06.058Z,89.56
2019-04-04T05:37:07.359Z,89.75
2019-04-04T05:38:07.733Z,89.84
2019-04-04T05:39:05.623Z,89.84
2019-04-04T05:40:05.627Z,89.65
2019-04-04T05:41:05.596Z,89.94
2019-04-04T05:42:05.565Z,89.56
2019-04-04T05:43:05.548Z,89.94
2019-04-04T05:44:09.044Z,89.47
2019-04-04T05:45:05.510Z,89.56
2019-04-04T05:46:05.507Z,89.47
2019-04-04T05:47:05.463Z,89.08
2019-04-04T05:48:05.441Z,89.08
2019-04-04T05:49:07.798Z,88.32
2019-04-04T05:50:05.401Z,88.60
2019-04-04T05:51:05.699Z,88.70
2019-04-04T05:53:52.654Z,88.75
2019-04-04T06:04:42.460Z,87.03
2019-04-04T06:05:42.444Z,86.75
2019-04-04T06:06:42.435Z,87.07
2019-04-04T06:07:42.422Z,86.41
2019-04-04T06:08:43.333Z,86.60
2019-04-04T06:09:46.095Z,87.17
2019-04-04T06:10:42.334Z,86.88
2019-04-04T06:11:42.314Z,86.12
2019-04-04T06:12:42.292Z,86.60
2019-04-04T06:13:42.269Z,86.32
2019-04-04T06:14:42.255Z,85.36
2019-04-04T06:15:42.238Z,84.92
2019-04-04T06:16:42.213Z,85.50
2019-04-04T06:17:42.195Z,85.31
2019-04-04T06:18:42.969Z,85.21
2019-04-04T06:19:44.417Z,84.83
2019-04-04T06:20:42.134Z,84.64
2019-04-04T06:21:42.127Z,84.74
2019-04-04T06:22:42.095Z,84.20
2019-04-04T06:23:42.071Z,83.73
2019-04-04T06:24:42.055Z,83.73
2019-04-04T06:25:42.051Z,83.06
2019-04-04T06:26:42.016Z,83.06
2019-04-04T06:27:41.993Z,83.16
2019-04-04T06:28:44.207Z,83.25
2019-04-04T06:29:41.957Z,83.25
2019-04-04T06:30:43.433Z,83.16
2019-04-04T06:31:41.920Z,82.59
2019-04-04T06:32:41.902Z,81.86
2019-04-04T06:33:41.879Z,82.06
2019-04-04T06:34:42.181Z,81.58
2019-04-04T06:35:41.841Z,81.48
2019-04-04T06:36:41.822Z,80.62
2019-04-04T06:37:41.799Z,80.62
2019-04-04T06:38:44.404Z,79.80
2019-04-04T06:39:41.769Z,80.15
2019-04-04T06:40:41.749Z,79.61
2019-04-04T06:41:41.736Z,79.61
2019-04-04T06:42:41.710Z,78.75
2019-04-04T06:43:42.074Z,78.66
2019-04-04T06:44:43.787Z,77.70
2019-04-04T06:45:41.661Z,78.22
2019-04-04T06:46:41.639Z,77.65
2019-04-04T06:47:41.620Z,77.01
2019-04-04T06:48:41.593Z,75.81
2019-04-04T06:49:41.572Z,74.19
2019-04-04T06:50:42.965Z,73.27
2019-04-04T06:51:41.541Z,71.83
2019-04-04T06:52:41.520Z,71.20
2019-04-04T06:53:41.502Z,70.91
2019-04-04T06:54:41.490Z,69.60
2019-04-04T06:55:41.477Z,69.17
2019-04-04T06:56:41.452Z,67.88
2019-04-04T06:57:41.435Z,67.63
2019-04-04T06:58:41.421Z,68.07
2019-04-04T06:59:43.266Z,68.21
2019-04-04T07:00:42.201Z,67.98
2019-04-04T07:01:41.363Z,67.98
2019-04-04T07:02:41.348Z,69.03
2019-04-04T07:03:41.336Z,68.46
2019-04-04T07:04:44.952Z,68.36
2019-04-04T07:05:41.301Z,68.46
2019-04-04T07:06:41.961Z,69.00
2019-04-04T07:07:43.884Z,70.24
2019-04-04T07:08:41.252Z,69.67
2019-04-04T07:09:41.242Z,69.95
2019-04-04T07:10:41.224Z,69.95
2019-04-04T07:11:41.209Z,69.95
2019-04-04T07:12:41.193Z,70.62
2019-04-04T07:13:42.606Z,69.86
2019-04-04T07:14:46.020Z,69.73
2019-04-04T07:15:46.559Z,70.05
2019-04-04T07:16:41.170Z,70.53
2019-04-04T07:17:41.282Z,70.43
2019-04-04T07:18:43.062Z,70.43
2019-04-04T07:19:41.093Z,70.15
2019-04-04T07:20:41.074Z,69.00
2019-04-04T07:21:41.060Z,69.19
2019-04-04T07:22:41.043Z,68.33
2019-04-04T07:23:41.977Z,68.42
2019-04-04T07:24:41.021Z,68.23
2019-04-04T07:25:40.999Z,69.00
2019-04-04T07:26:40.989Z,68.80
2019-04-04T07:27:40.976Z,68.23
2019-04-04T07:28:40.965Z,68.90
2019-04-04T07:29:40.942Z,68.04
2019-04-04T07:30:40.933Z,67.79
2019-04-04T07:31:40.916Z,66.93
2019-04-04T07:32:41.693Z,66.64
2019-04-04T07:33:42.670Z,66.74
2019-04-04T07:34:40.869Z,66.64
2019-04-04T07:35:40.853Z,67.25
2019-04-04T07:36:40.845Z,67.15
2019-04-04T07:37:40.825Z,66.58
2019-04-04T07:38:40.810Z,66.03
2019-04-04T07:39:40.795Z,66.61
2019-04-04T07:40:40.788Z,65.78
2019-04-04T07:41:44.757Z,65.20
2019-04-04T07:42:40.753Z,64.43
2019-04-04T07:43:40.737Z,64.37
2019-04-04T07:44:40.723Z,63.03
2019-04-04T07:45:40.713Z,62.93
2019-04-04T07:46:41.301Z,62.19
2019-04-04T07:47:40.683Z,61.84
2019-04-04T07:48:40.668Z,60.82
2019-04-04T07:49:40.661Z,59.09
2019-04-04T07:50:40.640Z,58.64
2019-04-04T07:51:40.662Z,58.73
2019-04-04T07:52:40.618Z,57.60
2019-04-04T07:53:40.600Z,57.60
2019-04-04T07:54:40.586Z,57.25
2019-04-04T07:55:42.188Z,57.64
2019-04-04T07:56:40.561Z,57.51
2019-04-04T07:57:40.548Z,57.80
2019-04-04T07:58:40.537Z,58.06
2019-04-04T07:59:40.526Z,59.22
2019-04-04T08:00:40.513Z,59.44
2019-04-04T08:01:50.643Z,57.64
2019-04-04T08:02:40.490Z,56.25
2019-04-04T08:03:40.475Z,55.77
2019-04-04T08:04:40.461Z,55.07
2019-04-04T08:05:40.453Z,54.78
2019-04-04T08:06:40.450Z,55.65
2019-04-04T08:07:40.426Z,56.05
2019-04-04T08:08:40.412Z,55.09
2019-04-04T08:09:40.404Z,55.74
2019-04-04T08:10:40.399Z,55.26
2019-04-04T08:11:40.384Z,54.97
2019-04-04T08:12:40.370Z,55.83
2019-04-04T08:13:40.361Z,55.55
2019-04-04T08:14:40.347Z,55.52
2019-04-04T08:15:40.342Z,55.23
2019-04-04T08:16:40.325Z,56.16
2019-04-04T08:17:40.314Z,56.45
2019-04-04T08:18:40.303Z,56.29
2019-04-04T08:19:40.297Z,56.58
2019-04-04T08:20:40.280Z,56.45
2019-04-04T08:21:40.271Z,57.20
2019-04-04T08:22:40.264Z,57.90
2019-04-04T08:23:40.249Z,57.97
2019-04-04T08:24:40.239Z,57.99
2019-04-04T08:25:40.225Z,58.15
2019-04-04T08:26:40.221Z,55.00
2019-04-04T08:27:40.208Z,54.52
2019-04-04T08:28:40.199Z,53.67
2019-04-04T08:29:40.187Z,53.96
2019-04-04T08:30:40.178Z,53.39
2019-04-04T08:31:40.169Z,53.13
2019-04-04T08:32:40.165Z,53.09
2019-04-04T08:33:40.403Z,54.54
2019-04-04T08:34:40.136Z,51.87
2019-04-04T08:35:40.123Z,51.41
2019-04-04T08:36:40.118Z,52.40
2019-04-04T08:37:40.105Z,51.75
2019-04-04T08:38:40.094Z,50.43
2019-04-04T08:39:40.088Z,48.69
2019-04-04T08:40:40.074Z,48.93
2019-04-04T08:41:40.069Z,48.25
2019-04-04T08:42:40.067Z,48.64
2019-04-04T08:43:40.044Z,48.74
2019-04-04T08:44:40.038Z,49.63
2019-04-04T08:45:40.032Z,48.08
2019-04-04T08:46:40.017Z,47.79
2019-04-04T08:47:40.007Z,46.83
2019-04-04T08:48:39.998Z,45.47
2019-04-04T08:49:39.985Z,46.15
2019-04-04T08:50:39.990Z,45.95
2019-04-04T08:51:39.972Z,46.34
2019-04-04T08:52:39.960Z,47.91
2019-04-04T08:53:40.595Z,46.17
2019-04-04T08:54:39.945Z,44.45
2019-04-04T08:55:39.933Z,44.54
2019-04-04T08:56:39.927Z,45.15
2019-04-04T08:57:39.920Z,43.96
2019-04-04T08:58:39.906Z,43.68
2019-04-04T08:59:39.896Z,43.38
2019-04-04T09:00:39.888Z,43.48
2019-04-04T09:01:39.879Z,44.84
2019-04-04T09:02:39.868Z,44.54
2019-04-04T09:03:39.871Z,43.38
2019-04-04T09:04:39.854Z,43.68
2019-04-04T09:05:39.845Z,44.53
2019-04-04T09:06:39.835Z,45.59
2019-04-04T09:07:39.834Z,44.23
2019-04-04T09:08:39.882Z,43.75
2019-04-04T09:09:39.898Z,45.13
2019-04-04T09:10:39.800Z,44.84
2019-04-04T09:11:39.790Z,44.57
2019-04-04T09:12:39.788Z,46.33
2019-04-04T09:13:39.778Z,43.00
2019-04-04T09:14:41.183Z,45.13
2019-04-04T09:15:39.756Z,44.81
2019-04-04T09:16:39.749Z,44.54
2019-04-04T09:17:39.740Z,45.01
2019-04-04T09:18:39.730Z,44.91
2019-04-04T09:19:39.735Z,46.17
2019-04-04T09:20:39.714Z,46.46
2019-04-04T09:21:39.717Z,46.44
2019-04-04T09:22:40.909Z,47.02
2019-04-04T09:23:39.687Z,47.89
2019-04-04T09:24:39.694Z,47.79
2019-04-04T09:25:40.977Z,47.79
2019-04-04T09:26:39.668Z,48.08
2019-04-04T09:27:39.657Z,48.59
2019-04-04T09:28:39.650Z,47.50
2019-04-04T09:29:39.636Z,45.86
2019-04-04T09:30:39.636Z,45.74
2019-04-04T09:31:39.623Z,47.86
2019-04-04T09:32:39.615Z,47.58
2019-04-04T09:33:39.608Z,47.48
2019-04-04T09:34:39.603Z,46.42
2019-04-04T09:35:39.594Z,46.25
2019-04-04T09:36:39.587Z,46.44
2019-04-04T09:37:39.572Z,46.44
2019-04-04T09:38:39.568Z,47.52
2019-04-04T09:39:39.560Z,47.91
2019-04-04T09:40:39.548Z,46.44
2019-04-04T09:41:39.541Z,45.66
2019-04-04T09:42:39.536Z,45.83
2019-04-04T09:43:39.526Z,46.03
2019-04-04T09:44:39.514Z,46.12
2019-04-04T09:45:39.512Z,44.57
2019-04-04T09:46:39.500Z,45.25
2019-04-04T09:47:39.499Z,46.12
2019-04-04T09:48:39.492Z,46.51
2019-04-04T09:49:39.480Z,46.12
2019-04-04T09:50:39.472Z,46.34
2019-04-04T09:51:39.467Z,45.64
2019-04-04T09:52:39.459Z,46.58
2019-04-04T09:53:52.389Z,47.65
2019-04-04T09:54:39.448Z,48.03
2019-04-04T09:55:39.443Z,48.25
2019-04-04T09:56:39.435Z,47.65
2019-04-04T09:57:39.425Z,48.06
2019-04-04T09:58:39.423Z,48.25
2019-04-04T09:59:39.415Z,48.06
2019-04-04T10:00:39.407Z,48.08
2019-04-04T10:01:39.403Z,49.56
2019-04-04T10:02:39.392Z,46.56
2019-04-04T10:03:39.391Z,46.46
2019-04-04T10:04:39.386Z,46.26
2019-04-04T10:05:39.380Z,46.56
2019-04-04T10:06:39.373Z,47.31
2019-04-04T10:07:39.374Z,47.52
2019-04-04T10:08:39.362Z,47.14
2019-04-04T10:09:39.505Z,47.64
2019-04-04T10:10:39.355Z,46.87
2019-04-04T10:11:39.351Z,46.22
2019-04-04T10:12:39.342Z,44.09
2019-04-04T10:13:39.365Z,44.20
2019-04-04T10:14:39.330Z,45.39
2019-04-04T10:15:39.326Z,44.54
2019-04-04T10:16:39.324Z,43.20
2019-04-04T10:17:39.330Z,42.60
2019-04-04T10:18:39.312Z,42.40
2019-04-04T10:19:39.308Z,42.86
2019-04-04T10:20:39.306Z,42.96
2019-04-04T10:21:39.311Z,43.26
2019-04-04T10:22:39.306Z,43.18
2019-04-04T10:23:39.303Z,42.61
2019-04-04T10:24:39.291Z,41.45
2019-04-04T10:25:39.336Z,42.27
2019-04-04T10:26:39.285Z,40.81
2019-04-04T10:27:39.288Z,40.81
2019-04-04T10:28:39.278Z,40.15
2019-04-04T10:29:39.273Z,39.96
2019-04-04T10:30:39.269Z,39.86
2019-04-04T10:31:39.266Z,39.45
2019-04-04T10:32:39.304Z,40.11
2019-04-04T10:33:42.098Z,39.82
2019-04-04T10:34:39.264Z,40.89
2019-04-04T10:35:39.253Z,40.72
2019-04-04T10:36:39.254Z,40.64
2019-04-04T10:37:39.250Z,39.55
2019-04-04T10:38:39.245Z,39.92
2019-04-04T10:39:39.243Z,40.48
2019-04-04T10:40:39.240Z,40.60
2019-04-04T10:41:39.233Z,41.18
2019-04-04T10:42:39.231Z,40.03
2019-04-04T10:43:39.227Z,41.22
2019-04-04T10:44:39.229Z,39.37
2019-04-04T10:45:39.218Z,38.60
2019-04-04T10:46:39.220Z,38.40
2019-04-04T10:47:39.215Z,37.76
2019-04-04T10:48:39.212Z,36.02
2019-04-04T10:49:39.218Z,36.90
2019-04-04T10:50:39.209Z,36.61
2019-04-04T10:51:39.204Z,35.26
2019-04-04T10:52:39.198Z,35.05
2019-04-04T10:53:39.202Z,36.33
2019-04-04T10:54:39.197Z,36.35
2019-04-04T10:55:39.199Z,36.96
2019-04-04T10:56:39.193Z,35.71
2019-04-04T10:57:39.190Z,36.90
2019-04-04T10:58:39.192Z,35.85
2019-04-04T10:59:39.181Z,33.85
2019-04-04T11:00:39.182Z,32.50
2019-04-04T11:01:39.179Z,32.32
2019-04-04T11:02:39.179Z,31.73
2019-04-04T11:03:39.180Z,31.03
2019-04-04T11:04:39.172Z,30.90
2019-04-04T11:05:39.170Z,31.75
2019-04-04T11:06:39.171Z,32.62
2019-04-04T11:07:39.167Z,33.77
2019-04-04T11:08:39.171Z,34.24
2019-04-04T11:09:42.089Z,32.28
2019-04-04T11:10:39.169Z,34.11
2019-04-04T11:11:39.163Z,35.28
2019-04-04T11:12:39.162Z,34.40
2019-04-04T11:13:39.162Z,34.59
2019-04-04T11:14:39.158Z,34.39
2019-04-04T11:15:39.155Z,33.80
2019-04-04T11:16:39.160Z,34.03
2019-04-04T11:17:39.154Z,33.34
2019-04-04T11:18:39.154Z,32.97
2019-04-04T11:19:39.151Z,33.15
2019-04-04T11:20:39.157Z,33.62
2019-04-04T11:21:39.151Z,33.73
2019-04-04T11:22:39.149Z,33.31
2019-04-04T11:23:39.143Z,34.29
2019-04-04T11:24:39.146Z,33.70
2019-04-04T11:25:39.141Z,33.49
2019-04-04T11:26:39.146Z,34.27
2019-04-04T11:27:39.142Z,34.86
2019-04-04T11:28:39.135Z,35.75
2019-04-04T11:29:39.140Z,34.01
2019-04-04T11:30:39.134Z,32.96
2019-04-04T11:31:39.134Z,32.87
2019-04-04T11:32:39.137Z,32.58
2019-04-04T11:33:39.131Z,33.15
2019-04-04T11:34:39.127Z,33.46
2019-04-04T11:35:39.132Z,32.39
2019-04-04T11:36:39.126Z,33.64
2019-04-04T11:37:39.127Z,33.93
2019-04-04T11:38:39.122Z,33.82
2019-04-04T11:39:39.124Z,33.61
2019-04-04T11:40:39.128Z,33.72
2019-04-04T11:41:39.122Z,34.32
2019-04-04T11:42:39.169Z,34.00
2019-04-04T11:43:39.117Z,34.29
2019-04-04T11:44:39.119Z,34.78
2019-04-04T11:45:39.117Z,35.85
2019-04-04T11:46:39.115Z,34.11
2019-04-04T11:47:39.111Z,34.59
2019-04-04T11:48:39.112Z,34.21
2019-04-04T11:49:39.107Z,33.43
2019-04-04T11:50:39.945Z,33.82
2019-04-04T11:51:39.113Z,34.01
2019-04-04T11:52:39.107Z,33.64
2019-04-04T11:53:39.109Z,33.93
2019-04-04T11:54:39.101Z,34.03
2019-04-04T11:55:39.104Z,34.44
2019-04-04T11:56:39.104Z,33.85
2019-04-04T11:57:39.101Z,33.64
2019-04-04T11:58:39.100Z,33.75
2019-04-04T11:59:39.103Z,34.63
2019-04-04T12:00:39.098Z,34.14
2019-04-04T12:01:39.095Z,34.92
2019-04-04T12:02:39.092Z,34.26
2019-04-04T12:03:39.095Z,34.18
2019-04-04T12:04:39.092Z,34.28
2019-04-04T12:05:39.089Z,34.28
2019-04-04T12:06:39.086Z,32.62
2019-04-04T12:07:39.100Z,32.48
2019-04-04T12:08:39.107Z,33.46
2019-04-04T12:09:39.089Z,33.87
2019-04-04T12:10:39.087Z,33.26
2019-04-04T12:11:39.086Z,32.84
2019-04-04T12:12:39.085Z,33.90
2019-04-04T12:13:39.089Z,34.48
2019-04-04T12:14:39.080Z,33.90
2019-04-04T12:15:39.085Z,34.00
2019-04-04T12:16:39.082Z,34.66
2019-04-04T12:17:39.082Z,34.33
2019-04-04T12:20:22.364Z,34.24
2019-04-04T12:21:22.364Z,35.52
2019-04-04T12:22:22.369Z,34.56
2019-04-04T12:23:22.367Z,34.19
2019-04-04T12:24:22.365Z,33.53
2019-04-04T12:25:22.364Z,32.67
2019-04-04T12:26:22.363Z,32.28
2019-04-04T12:27:22.364Z,32.37
2019-04-04T12:28:22.359Z,31.28
2019-04-04T12:29:22.357Z,32.23
2019-04-04T12:30:22.363Z,32.63
2019-04-04T12:31:22.358Z,32.43
2019-04-04T12:32:22.354Z,32.67
2019-04-04T12:33:22.348Z,31.59
2019-04-04T12:34:22.351Z,31.20
2019-04-04T12:35:22.350Z,31.22
2019-04-04T12:36:24.924Z,31.10
2019-04-04T12:37:22.349Z,31.09
2019-04-04T12:38:22.350Z,32.63
2019-04-04T12:39:22.343Z,32.63
2019-04-04T12:40:22.340Z,32.52
2019-04-04T12:41:22.342Z,32.60
2019-04-04T12:42:22.344Z,33.48
2019-04-04T12:43:22.338Z,33.75
2019-04-04T12:44:22.340Z,34.24
2019-04-04T12:45:22.336Z,33.78
2019-04-04T12:46:22.344Z,33.22
2019-04-04T12:47:22.337Z,32.62
2019-04-04T12:48:22.336Z,33.82
2019-04-04T12:49:22.328Z,32.45
2019-04-04T12:50:22.329Z,31.93
2019-04-04T12:51:22.333Z,33.38
2019-04-04T12:52:22.320Z,32.50
2019-04-04T12:53:22.323Z,32.60
2019-04-04T12:54:22.319Z,33.34
2019-04-04T12:55:22.316Z,34.08
2019-04-04T12:56:22.322Z,35.78
2019-04-04T12:57:22.308Z,37.24
2019-04-04T12:58:22.308Z,37.34
2019-04-04T12:59:22.309Z,38.48
2019-04-04T13:00:22.304Z,39.04
2019-04-04T13:01:22.298Z,39.80
2019-04-04T13:02:22.906Z,40.58
2019-04-04T13:03:22.675Z,40.28
2019-04-04T13:04:31.001Z,39.61
2019-04-04T13:05:22.294Z,39.97
2019-04-04T13:06:22.285Z,40.00